sensor_id;sensor_type;location;lat;lon;timestamp;pressure;altitude;pressure_sealevel;temperature;humidity
10618;BME280;5356;43.526;26.534;2023-01-20T00:00:40;98295.97;;;14.51;99.30
10618;BME280;5356;43.526;26.534;2023-01-20T00:03:05;98301.38;;;14.56;99.18
10618;BME280;5356;43.526;26.534;2023-01-20T00:05:31;98302.97;;;14.57;99.26
10618;BME280;5356;43.526;26.534;2023-01-20T00:07:57;98283.66;;;14.60;99.00
10618;BME280;5356;43.526;26.534;2023-01-20T00:10:22;98288.78;;;14.67;98.35
10618;BME280;5356;43.526;26.534;2023-01-20T00:12:48;98288.53;;;14.64;98.44
10618;BME280;5356;43.526;26.534;2023-01-20T00:15:13;98285.03;;;14.58;99.28
10618;BME280;5356;43.526;26.534;2023-01-20T00:17:39;98290.91;;;14.55;99.35
10618;BME280;5356;43.526;26.534;2023-01-20T00:20:05;98276.72;;;14.59;99.44
10618;BME280;5356;43.526;26.534;2023-01-20T00:22:30;98274.03;;;14.65;99.24
10618;BME280;5356;43.526;26.534;2023-01-20T00:24:56;98265.19;;;14.69;98.81
10618;BME280;5356;43.526;26.534;2023-01-20T00:27:21;98263.84;;;14.67;99.03
10618;BME280;5356;43.526;26.534;2023-01-20T00:29:47;98264.38;;;14.69;98.94
10618;BME280;5356;43.526;26.534;2023-01-20T00:32:12;98269.72;;;14.74;98.33
10618;BME280;5356;43.526;26.534;2023-01-20T00:34:37;98274.03;;;14.65;98.88
10618;BME280;5356;43.526;26.534;2023-01-20T00:37:03;98264.66;;;14.62;99.14
10618;BME280;5356;43.526;26.534;2023-01-20T00:39:29;98266.78;;;14.60;99.01
10618;BME280;5356;43.526;26.534;2023-01-20T00:41:54;98277.22;;;14.51;99.49
10618;BME280;5356;43.526;26.534;2023-01-20T00:44:20;98263.00;;;14.51;99.84
10618;BME280;5356;43.526;26.534;2023-01-20T00:46:45;98250.69;;;14.45;99.89
10618;BME280;5356;43.526;26.534;2023-01-20T00:49:11;98264.06;;;14.40;100.00
10618;BME280;5356;43.526;26.534;2023-01-20T00:51:36;98256.84;;;14.40;100.00
10618;BME280;5356;43.526;26.534;2023-01-20T00:54:02;98262.19;;;14.40;100.00
10618;BME280;5356;43.526;26.534;2023-01-20T00:56:27;98271.56;;;14.43;100.00
10618;BME280;5356;43.526;26.534;2023-01-20T00:58:53;98262.75;;;14.42;99.95
10618;BME280;5356;43.526;26.534;2023-01-20T01:01:22;98256.31;;;14.43;100.00
10618;BME280;5356;43.526;26.534;2023-01-20T01:03:47;98258.44;;;14.46;99.58
10618;BME280;5356;43.526;26.534;2023-01-20T01:06:31;98257.44;;;14.52;99.43
10618;BME280;5356;43.526;26.534;2023-01-20T01:08:57;98255.78;;;14.51;99.17
10618;BME280;5356;43.526;26.534;2023-01-20T01:11:22;98255.25;;;14.54;98.61
10618;BME280;5356;43.526;26.534;2023-01-20T01:13:48;98263.31;;;14.65;98.14
10618;BME280;5356;43.526;26.534;2023-01-20T01:16:14;98256.88;;;14.66;97.51
10618;BME280;5356;43.526;26.534;2023-01-20T01:18:41;98263.03;;;14.71;97.17
10618;BME280;5356;43.526;26.534;2023-01-20T01:21:13;98257.66;;;14.76;96.86
10618;BME280;5356;43.526;26.534;2023-01-20T01:23:38;98258.47;;;14.82;96.66
10618;BME280;5356;43.526;26.534;2023-01-20T01:26:04;98259.56;;;14.81;96.23
10618;BME280;5356;43.526;26.534;2023-01-20T01:28:30;98257.13;;;14.85;96.06
10618;BME280;5356;43.526;26.534;2023-01-20T01:30:59;98251.75;;;14.85;95.55
10618;BME280;5356;43.526;26.534;2023-01-20T01:33:25;98252.56;;;14.95;95.37
10618;BME280;5356;43.526;26.534;2023-01-20T01:35:55;98249.59;;;14.92;95.28
10618;BME280;5356;43.526;26.534;2023-01-20T01:38:22;98242.63;;;14.96;94.60
10618;BME280;5356;43.526;26.534;2023-01-20T01:40:48;98241.28;;;14.93;94.34
10618;BME280;5356;43.526;26.534;2023-01-20T01:43:23;98245.31;;;14.91;94.09
10618;BME280;5356;43.526;26.534;2023-01-20T01:45:48;98238.59;;;14.93;94.42
10618;BME280;5356;43.526;26.534;2023-01-20T01:48:14;98246.66;;;14.93;93.98
10618;BME280;5356;43.526;26.534;2023-01-20T01:50:47;98237.81;;;14.93;94.19
10618;BME280;5356;43.526;26.534;2023-01-20T01:53:15;98252.56;;;14.90;94.00
10618;BME280;5356;43.526;26.534;2023-01-20T01:55:50;98249.88;;;14.90;94.42
10618;BME280;5356;43.526;26.534;2023-01-20T01:58:19;98251.75;;;14.95;94.03
10618;BME280;5356;43.526;26.534;2023-01-20T02:00:47;98246.41;;;14.95;94.21
10618;BME280;5356;43.526;26.534;2023-01-20T02:03:13;98248.78;;;14.96;94.42
10618;BME280;5356;43.526;26.534;2023-01-20T02:05:40;98242.34;;;14.97;94.27
10618;BME280;5356;43.526;26.534;2023-01-20T02:08:07;98248.00;;;14.96;94.05
10618;BME280;5356;43.526;26.534;2023-01-20T02:10:32;98253.06;;;15.02;93.79
10618;BME280;5356;43.526;26.534;2023-01-20T02:12:59;98263.25;;;15.11;93.23
10618;BME280;5356;43.526;26.534;2023-01-20T02:15:28;98265.13;;;15.05;93.23
10618;BME280;5356;43.526;26.534;2023-01-20T02:18:09;98276.09;;;15.14;93.15
10618;BME280;5356;43.526;26.534;2023-01-20T02:34:29;98250.44;;;14.67;96.62
10618;BME280;5356;43.526;26.534;2023-01-20T02:37:02;98253.13;;;14.56;97.15
10618;BME280;5356;43.526;26.534;2023-01-20T02:40:01;98237.56;;;14.48;98.22
10618;BME280;5356;43.526;26.534;2023-01-20T02:42:26;98239.69;;;14.51;98.22
10618;BME280;5356;43.526;26.534;2023-01-20T02:50:01;98224.16;;;14.33;100.00
10618;BME280;5356;43.526;26.534;2023-01-20T02:52:34;98227.38;;;14.30;100.00
10618;BME280;5356;43.526;26.534;2023-01-20T02:55:05;98223.38;;;14.32;100.00
10618;BME280;5356;43.526;26.534;2023-01-20T02:57:46;98223.38;;;14.32;100.00
10618;BME280;5356;43.526;26.534;2023-01-20T03:00:22;98228.44;;;14.39;100.00
10618;BME280;5356;43.526;26.534;2023-01-20T03:02:52;98229.00;;;14.36;100.00
10618;BME280;5356;43.526;26.534;2023-01-20T03:05:28;98227.63;;;14.28;100.00
10618;BME280;5356;43.526;26.534;2023-01-20T03:07:57;98226.56;;;14.24;100.00
10618;BME280;5356;43.526;26.534;2023-01-20T03:10:24;98225.25;;;14.27;100.00
10618;BME280;5356;43.526;26.534;2023-01-20T03:12:56;98236.22;;;14.25;100.00
10618;BME280;5356;43.526;26.534;2023-01-20T03:15:33;98238.63;;;14.22;100.00
10618;BME280;5356;43.526;26.534;2023-01-20T03:18:00;98239.41;;;14.17;100.00
10618;BME280;5356;43.526;26.534;2023-01-20T03:20:25;98235.66;;;14.13;100.00
10618;BME280;5356;43.526;26.534;2023-01-20T03:22:51;98238.59;;;14.11;100.00
10618;BME280;5356;43.526;26.534;2023-01-20T03:25:17;98234.06;;;14.07;100.00
10618;BME280;5356;43.526;26.534;2023-01-20T03:27:43;98241.00;;;14.03;100.00
10618;BME280;5356;43.526;26.534;2023-01-20T03:30:16;98247.16;;;14.03;100.00
10618;BME280;5356;43.526;26.534;2023-01-20T03:32:43;98241.53;;;14.05;100.00
10618;BME280;5356;43.526;26.534;2023-01-20T03:35:12;98243.13;;;14.01;100.00
10618;BME280;5356;43.526;26.534;2023-01-20T03:37:40;98238.06;;;13.99;100.00
10618;BME280;5356;43.526;26.534;2023-01-20T03:40:07;98245.53;;;13.97;100.00
10618;BME280;5356;43.526;26.534;2023-01-20T03:42:42;98242.88;;;13.97;100.00
10618;BME280;5356;43.526;26.534;2023-01-20T03:45:26;98230.25;;;13.82;100.00
10618;BME280;5356;43.526;26.534;2023-01-20T03:50:36;98226.22;;;13.80;100.00
10618;BME280;5356;43.526;26.534;2023-01-20T03:55:43;98220.59;;;13.76;100.00
10618;BME280;5356;43.526;26.534;2023-01-20T03:58:13;98215.78;;;13.73;100.00
10618;BME280;5356;43.526;26.534;2023-01-20T04:00:46;98210.66;;;13.66;100.00
10618;BME280;5356;43.526;26.534;2023-01-20T04:03:16;98212.28;;;13.73;100.00
10618;BME280;5356;43.526;26.534;2023-01-20T04:05:45;98225.13;;;13.76;100.00
10618;BME280;5356;43.526;26.534;2023-01-20T04:08:13;98212.31;;;13.83;100.00
10618;BME280;5356;43.526;26.534;2023-01-20T04:10:41;98209.63;;;13.83;100.00
10618;BME280;5356;43.526;26.534;2023-01-20T04:13:08;98213.13;;;13.83;100.00
10618;BME280;5356;43.526;26.534;2023-01-20T04:15:36;98208.56;;;13.79;100.00
10618;BME280;5356;43.526;26.534;2023-01-20T04:18:17;98226.22;;;13.80;100.00
10618;BME280;5356;43.526;26.534;2023-01-20T04:20:46;98237.22;;;13.83;100.00
10618;BME280;5356;43.526;26.534;2023-01-20T04:23:31;98232.13;;;13.82;100.00
10618;BME280;5356;43.526;26.534;2023-01-20T04:25:58;98235.84;;;13.76;100.00
10618;BME280;5356;43.526;26.534;2023-01-20T04:28:23;98234.53;;;13.73;100.00
10618;BME280;5356;43.526;26.534;2023-01-20T04:30:50;98241.19;;;13.70;100.00
10618;BME280;5356;43.526;26.534;2023-01-20T04:33:15;98234.50;;;13.68;100.00
10618;BME280;5356;43.526;26.534;2023-01-20T04:35:41;98227.78;;;13.65;100.00
10618;BME280;5356;43.526;26.534;2023-01-20T04:38:06;98235.03;;;13.65;100.00
10618;BME280;5356;43.526;26.534;2023-01-20T04:40:32;98231.28;;;13.66;100.00
10618;BME280;5356;43.526;26.534;2023-01-20T04:42:57;98247.06;;;13.73;100.00
10618;BME280;5356;43.526;26.534;2023-01-20T04:45:23;98254.06;;;13.79;100.00
10618;BME280;5356;43.526;26.534;2023-01-20T04:47:48;98254.38;;;13.87;100.00
10618;BME280;5356;43.526;26.534;2023-01-20T04:50:14;98248.47;;;13.90;100.00
10618;BME280;5356;43.526;26.534;2023-01-20T04:52:40;98245.53;;;13.92;100.00
10618;BME280;5356;43.526;26.534;2023-01-20T04:55:07;98247.66;;;13.95;100.00
10618;BME280;5356;43.526;26.534;2023-01-20T04:57:32;98247.69;;;14.00;100.00
10618;BME280;5356;43.526;26.534;2023-01-20T04:59:58;98242.06;;;13.97;100.00
10618;BME280;5356;43.526;26.534;2023-01-20T05:02:23;98236.75;;;14.07;100.00
10618;BME280;5356;43.526;26.534;2023-01-20T05:04:48;98237.53;;;14.02;100.00
10618;BME280;5356;43.526;26.534;2023-01-20T05:07:14;98240.19;;;14.02;100.00
10618;BME280;5356;43.526;26.534;2023-01-20T05:09:40;98241.28;;;14.01;100.00
10618;BME280;5356;43.526;26.534;2023-01-20T05:12:05;98230.03;;;13.99;100.00
10618;BME280;5356;43.526;26.534;2023-01-20T05:14:31;98231.34;;;13.91;100.00
10618;BME280;5356;43.526;26.534;2023-01-20T05:16:56;98226.00;;;13.97;100.00
10618;BME280;5356;43.526;26.534;2023-01-20T05:19:22;98212.59;;;13.97;100.00
10618;BME280;5356;43.526;26.534;2023-01-20T05:21:47;98200.53;;;13.89;100.00
10618;BME280;5356;43.526;26.534;2023-01-20T05:24:13;98206.72;;;13.84;100.00
10618;BME280;5356;43.526;26.534;2023-01-20T05:26:38;98213.94;;;13.79;100.00
10618;BME280;5356;43.526;26.534;2023-01-20T05:29:04;98204.81;;;13.80;100.00
10618;BME280;5356;43.526;26.534;2023-01-20T05:31:29;98208.81;;;13.72;100.00
10618;BME280;5356;43.526;26.534;2023-01-20T05:33:55;98206.38;;;13.65;100.00
10618;BME280;5356;43.526;26.534;2023-01-20T05:36:21;98183.88;;;13.61;100.00
10618;BME280;5356;43.526;26.534;2023-01-20T05:38:47;98189.47;;;13.50;100.00
10618;BME280;5356;43.526;26.534;2023-01-20T05:41:13;98211.97;;;13.48;100.00
10618;BME280;5356;43.526;26.534;2023-01-20T05:43:38;98216.78;;;13.52;100.00
10618;BME280;5356;43.526;26.534;2023-01-20T05:46:04;98220.53;;;13.56;100.00
10618;BME280;5356;43.526;26.534;2023-01-20T05:48:30;98230.19;;;13.62;100.00
10618;BME280;5356;43.526;26.534;2023-01-20T05:50:56;98231.81;;;13.63;100.00
10618;BME280;5356;43.526;26.534;2023-01-20T05:53:21;98228.31;;;13.57;100.00
10618;BME280;5356;43.526;26.534;2023-01-20T05:55:47;98233.38;;;13.54;100.00
10618;BME280;5356;43.526;26.534;2023-01-20T05:58:13;98240.59;;;13.58;100.00
10618;BME280;5356;43.526;26.534;2023-01-20T06:00:39;98233.41;;;13.59;100.00
10618;BME280;5356;43.526;26.534;2023-01-20T06:03:05;98238.22;;;13.62;100.00
10618;BME280;5356;43.526;26.534;2023-01-20T06:05:30;98231.53;;;13.59;100.00
10618;BME280;5356;43.526;26.534;2023-01-20T06:07:56;98228.31;;;13.57;100.00
10618;BME280;5356;43.526;26.534;2023-01-20T06:10:23;98229.63;;;13.55;100.00
10618;BME280;5356;43.526;26.534;2023-01-20T06:12:56;98224.84;;;13.62;100.00
10618;BME280;5356;43.526;26.534;2023-01-20T06:15:24;98220.56;;;13.66;100.00
10618;BME280;5356;43.526;26.534;2023-01-20T06:17:51;98208.28;;;13.65;100.00
10618;BME280;5356;43.526;26.534;2023-01-20T06:20:16;98216.59;;;13.79;100.00
10618;BME280;5356;43.526;26.534;2023-01-20T06:22:42;98202.69;;;13.82;100.00
10618;BME280;5356;43.526;26.534;2023-01-20T06:25:08;98212.59;;;13.91;100.00
10618;BME280;5356;43.526;26.534;2023-01-20T06:27:33;98210.19;;;14.00;100.00
10618;BME280;5356;43.526;26.534;2023-01-20T06:29:59;98211.81;;;14.06;100.00
10618;BME280;5356;43.526;26.534;2023-01-20T06:32:24;98212.63;;;14.12;100.00
10618;BME280;5356;43.526;26.534;2023-01-20T06:34:50;98204.03;;;14.15;100.00
10618;BME280;5356;43.526;26.534;2023-01-20T06:37:17;98198.44;;;14.22;100.00
10618;BME280;5356;43.526;26.534;2023-01-20T06:39:42;98209.41;;;14.20;100.00
10618;BME280;5356;43.526;26.534;2023-01-20T06:42:08;98222.81;;;14.30;100.00
10618;BME280;5356;43.526;26.534;2023-01-20T06:44:33;98219.63;;;14.44;100.00
10618;BME280;5356;43.526;26.534;2023-01-20T06:46:59;98221.47;;;14.43;100.00
10618;BME280;5356;43.526;26.534;2023-01-20T06:49:25;98217.72;;;14.44;100.00
10618;BME280;5356;43.526;26.534;2023-01-20T06:51:51;98207.03;;;14.49;100.00
10618;BME280;5356;43.526;26.534;2023-01-20T06:54:16;98198.97;;;14.49;100.00
10618;BME280;5356;43.526;26.534;2023-01-20T06:56:41;98215.84;;;14.40;100.00
10618;BME280;5356;43.526;26.534;2023-01-20T06:59:09;98219.63;;;14.44;100.00
10618;BME280;5356;43.526;26.534;2023-01-20T07:01:34;98214.56;;;14.52;100.00
10618;BME280;5356;43.526;26.534;2023-01-20T07:04:00;98215.59;;;14.56;100.00
10618;BME280;5356;43.526;26.534;2023-01-20T07:08:54;98197.63;;;14.72;100.00
10618;BME280;5356;43.526;26.534;2023-01-20T07:11:19;98195.47;;;14.85;100.00
10618;BME280;5356;43.526;26.534;2023-01-20T07:13:45;98190.34;;;14.98;100.00
10618;BME280;5356;43.526;26.534;2023-01-20T07:16:11;98188.91;;;15.16;100.00
10618;BME280;5356;43.526;26.534;2023-01-20T07:18:37;98188.59;;;15.33;100.00
10618;BME280;5356;43.526;26.534;2023-01-20T07:21:03;98193.34;;;15.52;100.00
10618;BME280;5356;43.526;26.534;2023-01-20T07:23:29;98198.66;;;15.57;100.00
10618;BME280;5356;43.526;26.534;2023-01-20T07:26:00;98183.63;;;15.61;100.00
10618;BME280;5356;43.526;26.534;2023-01-20T07:28:27;98196.81;;;15.57;100.00
10618;BME280;5356;43.526;26.534;2023-01-20T07:30:52;98186.56;;;15.69;100.00
10618;BME280;5356;43.526;26.534;2023-01-20T07:33:18;98195.94;;;15.72;100.00
10618;BME280;5356;43.526;26.534;2023-01-20T07:35:43;98196.41;;;15.84;100.00
10618;BME280;5356;43.526;26.534;2023-01-20T07:38:09;98202.50;;;15.95;99.51
10618;BME280;5356;43.526;26.534;2023-01-20T07:40:34;98195.81;;;15.92;98.13
10618;BME280;5356;43.526;26.534;2023-01-20T07:43:02;98186.16;;;15.91;96.52
10618;BME280;5356;43.526;26.534;2023-01-20T07:45:28;98185.06;;;15.92;97.29
10618;BME280;5356;43.526;26.534;2023-01-20T07:47:57;98191.22;;;15.98;97.65
10618;BME280;5356;43.526;26.534;2023-01-20T07:50:22;98182.34;;;15.98;98.03
10618;BME280;5356;43.526;26.534;2023-01-20T07:52:47;98195.81;;;15.92;98.47
10618;BME280;5356;43.526;26.534;2023-01-20T07:55:13;98184.03;;;15.88;98.77
10618;BME280;5356;43.526;26.534;2023-01-20T07:57:38;98181.59;;;15.92;98.86
10618;BME280;5356;43.526;26.534;2023-01-20T08:00:04;98200.09;;;15.93;98.85
10618;BME280;5356;43.526;26.534;2023-01-20T08:02:35;98195.56;;;15.89;98.85
10618;BME280;5356;43.526;26.534;2023-01-20T08:05:01;98211.41;;;15.90;98.96
10618;BME280;5356;43.526;26.534;2023-01-20T08:07:26;98193.69;;;15.89;98.77
10618;BME280;5356;43.526;26.534;2023-01-20T08:09:52;98198.50;;;15.92;98.92
10618;BME280;5356;43.526;26.534;2023-01-20T08:12:17;98209.81;;;15.84;99.16
10618;BME280;5356;43.526;26.534;2023-01-20T08:14:43;98214.94;;;15.86;99.14
10618;BME280;5356;43.526;26.534;2023-01-20T08:17:08;98203.06;;;15.92;99.12
10618;BME280;5356;43.526;26.534;2023-01-20T08:19:34;98202.72;;;16.04;97.97
10618;BME280;5356;43.526;26.534;2023-01-20T08:21:59;98205.28;;;16.19;97.34
10618;BME280;5356;43.526;26.534;2023-01-20T08:24:25;98206.00;;;16.30;96.08
10618;BME280;5356;43.526;26.534;2023-01-20T08:26:50;98201.41;;;16.35;94.87
10618;BME280;5356;43.526;26.534;2023-01-20T08:29:16;98192.19;;;16.42;94.12
10618;BME280;5356;43.526;26.534;2023-01-20T08:31:41;98189.97;;;16.54;93.48
10618;BME280;5356;43.526;26.534;2023-01-20T08:34:07;98214.66;;;16.56;92.67
10618;BME280;5356;43.526;26.534;2023-01-20T08:36:35;98209.94;;;16.72;92.20
10618;BME280;5356;43.526;26.534;2023-01-20T08:39:02;98191.47;;;16.65;90.96
10618;BME280;5356;43.526;26.534;2023-01-20T08:41:32;98192.19;;;16.76;90.14
10618;BME280;5356;43.526;26.534;2023-01-20T08:44:00;98179.56;;;16.76;88.08
10618;BME280;5356;43.526;26.534;2023-01-20T08:46:26;98190.44;;;16.90;86.13
10618;BME280;5356;43.526;26.534;2023-01-20T08:48:52;98181.19;;;17.01;86.26
10618;BME280;5356;43.526;26.534;2023-01-20T08:51:27;98170.69;;;17.00;85.82
10618;BME280;5356;43.526;26.534;2023-01-20T08:53:53;98185.41;;;17.08;84.64
10618;BME280;5356;43.526;26.534;2023-01-20T08:56:19;98185.72;;;17.01;84.95
10618;BME280;5356;43.526;26.534;2023-01-20T08:58:45;98181.97;;;17.02;84.19
10618;BME280;5356;43.526;26.534;2023-01-20T09:01:16;98180.34;;;17.01;85.02
10618;BME280;5356;43.526;26.534;2023-01-20T09:03:42;98191.84;;;17.06;85.02
10618;BME280;5356;43.526;26.534;2023-01-20T09:06:09;98178.34;;;17.12;85.76
10618;BME280;5356;43.526;26.534;2023-01-20T09:08:35;98165.38;;;17.19;84.98
10618;BME280;5356;43.526;26.534;2023-01-20T09:11:06;98152.13;;;17.22;85.03
10618;BME280;5356;43.526;26.534;2023-01-20T09:13:32;98152.69;;;17.19;83.72
10618;BME280;5356;43.526;26.534;2023-01-20T09:15:57;98158.09;;;16.95;84.41
10618;BME280;5356;43.526;26.534;2023-01-20T09:18:23;98147.28;;;16.76;84.11
10618;BME280;5356;43.526;26.534;2023-01-20T09:20:48;98144.09;;;16.69;84.85
10618;BME280;5356;43.526;26.534;2023-01-20T09:23:13;98134.63;;;16.77;83.22
10618;BME280;5356;43.526;26.534;2023-01-20T09:25:39;98133.34;;;16.69;83.75
10618;BME280;5356;43.526;26.534;2023-01-20T09:28:04;98126.38;;;16.68;84.30
10618;BME280;5356;43.526;26.534;2023-01-20T09:30:30;98120.00;;;16.59;84.37
10618;BME280;5356;43.526;26.534;2023-01-20T09:32:55;98110.91;;;16.55;83.96
10618;BME280;5356;43.526;26.534;2023-01-20T09:35:25;98126.13;;;16.35;85.42
10618;BME280;5356;43.526;26.534;2023-01-20T09:37:51;98115.22;;;16.27;86.26
10618;BME280;5356;43.526;26.534;2023-01-20T09:43:51;98095.06;;;16.24;87.27
10618;BME280;5356;43.526;26.534;2023-01-20T09:46:32;98093.13;;;16.30;86.50
10618;BME280;5356;43.526;26.534;2023-01-20T09:55:02;98096.78;;;16.15;87.45
10618;BME280;5356;43.526;26.534;2023-01-20T09:57:36;98099.44;;;16.20;87.11
10618;BME280;5356;43.526;26.534;2023-01-20T10:00:07;98081.63;;;16.24;87.67
10618;BME280;5356;43.526;26.534;2023-01-20T10:02:38;98080.75;;;16.34;87.35
10618;BME280;5356;43.526;26.534;2023-01-20T10:05:13;98088.25;;;16.37;87.30
10618;BME280;5356;43.526;26.534;2023-01-20T10:07:51;98093.84;;;16.41;87.64
10618;BME280;5356;43.526;26.534;2023-01-20T10:10:24;98099.56;;;16.58;86.18
10618;BME280;5356;43.526;26.534;2023-01-20T10:13:12;98083.66;;;16.61;84.46
